Kangerlussuaq Airport

BGSF · Greenland

罗盘
风向 的 风向 090° Kangerlussuaq Airport 9/27
风: 13 kt, 4 beaufort

11 kt

6 kt
改变
0 5.000 10.000 15.000 20.000
SCT 9.500 ft
BKN 11.000 ft
METAR BGSF 041550Z AUTO 09013KT 9999NDV SCT095/// BKN110/// 03/M06 Q1024

METAR Kangerlussuaq Airport - BGSF/SFJ

该字段位于Greenland中。 该机场有一条跑道: 9/27. 该领域的国际民航组织标志是BGSF 它的国际航空运输协会代码是SFJ.

这份报告是针对2022年12月4日 12:50, 当地时间在Kangerlussuaq Airport进行的。

机场观察

风向为090°,速度为13 kt。

可见度为10 km 或者更多。

有疏云,零星散落的云朵在9.500 ft的高度 和 碎云在11.000 ft的高度。 破损或更高的上限为11.000 ft。

温度为3 °C,阵风为-4 °C。 露点为-6 °C,相对湿度为52%。 海平面上的气压为1024 hPa (QNH)。

白天

今天,太阳从10:43升起,在13:42降落。 这适用于Kangerlussuaq Airport,世界夏令时可能有所不同。 当地时间与世界标准时间之间的时差为-3 小时。 当前,没有夏令时有效。

公司介绍

我们没有关于这个机场的公司信息。

体会

到Vliegles.nl去找飞行课程,跳伞和其他飞行体验。 浏览页面,了解Kangerlussuaq Airport附近所有可用的活动。 你也可以使用搜索功能来寻找你所在地附近的特定飞行课程、跳伞或其他飞行体验。

跑道

Id 标题 侧风 逆风 侧风 %
9/27 061°-241° 6 kt 11 kt 48 %

逆风成分最大的方向会被突出显示,并用于横风计算。 这并不一定意味着这个方向在使用。

乌云

9.500 ft SCT 疏云,零星散落的云朵
11.000 ft BKN 碎云

温度 & 天气

温度 3 °C
露点 -6 °C
相对湿度 52%
风寒 -4 °C
Kp-index 2 (0-9)

白天

日出
10:43
中午
12:13
日落
13:42 (21m)

小工具

你想在你的网站上有一个关于Kangerlussuaq Airport的当前航空天气(METAR)的小部件吗?

显示HTML代码

我们和第三方通过cookies跟踪您在我们网站上的互联网行为。如果你继续,我们认为你同意我们的饼干政策